This is the latest recevied weather packets stored in our database for station/object I3LPO-3. If no packets are shown the sender has not sent any weather packets the latest 10 day(s).
| Time | Temp. | Humidity | Pressure | Rain* | Wind** | Luminosity | Snow |
|---|---|---|---|---|---|---|---|
| 1777896468 | 27.78° C | 41% | 1017.3 hPa | - | - | - | - |
| 1777895266 | 29.44° C | 41% | 1017.2 hPa | - | - | - | - |
| 1777894065 | 31.11° C | 41% | 1017.3 hPa | - | - | - | - |
| 1777892863 | 31.67° C | 40% | 1017.4 hPa | - | - | - | - |
| 1777891662 | 31.11° C | 40% | 1017.5 hPa | - | - | - | - |
| 1777890460 | 31.11° C | 40% | 1017.8 hPa | - | - | - | - |
| 1777889259 | 31.11° C | 39% | 1017.8 hPa | - | - | - | - |
| 1777888058 | 28.89° C | 39% | 1018.1 hPa | - | - | - | - |
| 1777886857 | 27.78° C | 39% | 1018.3 hPa | - | - | - | - |
| 1777885656 | 27.78° C | 39% | 1018.3 hPa | - | - | - | - |
| 1777884454 | 26.67° C | 39% | 1018.5 hPa | - | - | - | - |
| 1777883253 | 26.11° C | 39% | 1018.5 hPa | - | - | - | - |
| 1777882052 | 25° C | 38% | 1018.7 hPa | - | - | - | - |
| 1777880850 | 23.33° C | 38% | 1018.8 hPa | - | - | - | - |
| 1777879649 | 22.22° C | 38% | 1018.8 hPa | - | - | - | - |
| 1777878448 | 21.11° C | 37% | 1018.8 hPa | - | - | - | - |
| 1777877246 | 19.44° C | 37% | 1019 hPa | - | - | - | - |
| 1777876045 | 17.22° C | 37% | 1019.2 hPa | - | - | - | - |
| 1777874844 | 14.44° C | 38% | 1019.5 hPa | - | - | - | - |
| 1777873643 | 13.89° C | 38% | 1019.4 hPa | - | - | - | - |
| 1777872441 | 13.33° C | 38% | 1019.3 hPa | - | - | - | - |
| 1777871240 | 13.33° C | 38% | 1019.1 hPa | - | - | - | - |
| 1777870039 | 13.33° C | 38% | 1019 hPa | - | - | - | - |
| 1777868837 | 13.33° C | 38% | 1018.8 hPa | - | - | - | - |
| 1777867636 | 13.33° C | 38% | 1018.7 hPa | - | - | - | - |
* Rain since midnight (hover to see other rain measurements)
** Current wind speed in m/s (hover to see current wind gust speed)